sensor_id;sensor_type;location;lat;lon;timestamp;pressure;altitude;pressure_sealevel;temperature;humidity
52957;BME280;38819;42.692;23.342;2023-01-27T00:00:06;94470.94;;;2.52;75.26
52957;BME280;38819;42.692;23.342;2023-01-27T00:02:32;94481.06;;;2.55;75.13
52957;BME280;38819;42.692;23.342;2023-01-27T00:04:57;94472.03;;;2.62;74.89
52957;BME280;38819;42.692;23.342;2023-01-27T00:07:23;94480.00;;;2.56;74.80
52957;BME280;38819;42.692;23.342;2023-01-27T00:09:48;94481.63;;;2.57;75.07
52957;BME280;38819;42.692;23.342;2023-01-27T00:12:19;94476.03;;;2.59;75.41
52957;BME280;38819;42.692;23.342;2023-01-27T00:15:04;94472.25;;;2.55;75.32
52957;BME280;38819;42.692;23.342;2023-01-27T00:17:30;94466.94;;;2.55;75.07
52957;BME280;38819;42.692;23.342;2023-01-27T00:19:56;94466.66;;;2.56;75.13
52957;BME280;38819;42.692;23.342;2023-01-27T00:22:22;94461.34;;;2.56;75.46
52957;BME280;38819;42.692;23.342;2023-01-27T00:25:06;94450.69;;;2.62;75.18
52957;BME280;38819;42.692;23.342;2023-01-27T00:27:31;94439.78;;;2.63;75.01
52957;BME280;38819;42.692;23.342;2023-01-27T00:29:58;94448.53;;;2.58;75.12
52957;BME280;38819;42.692;23.342;2023-01-27T00:32:23;94438.16;;;2.62;75.32
52957;BME280;38819;42.692;23.342;2023-01-27T00:35:07;94442.41;;;2.53;75.51
52957;BME280;38819;42.692;23.342;2023-01-27T00:37:33;94451.44;;;2.47;75.89
52957;BME280;38819;42.692;23.342;2023-01-27T00:39:58;94451.47;;;2.57;75.65
52957;BME280;38819;42.692;23.342;2023-01-27T00:42:24;94445.09;;;2.58;75.91
52957;BME280;38819;42.692;23.342;2023-01-27T00:44:49;94446.16;;;2.62;75.93
52957;BME280;38819;42.692;23.342;2023-01-27T00:47:33;94439.22;;;2.56;75.35
52957;BME280;38819;42.692;23.342;2023-01-27T00:49:58;94453.63;;;2.60;75.28
52957;BME280;38819;42.692;23.342;2023-01-27T00:52:24;94454.47;;;2.66;75.42
52957;BME280;38819;42.692;23.342;2023-01-27T00:54:49;94463.50;;;2.65;75.79
52957;BME280;38819;42.692;23.342;2023-01-27T00:57:15;94455.78;;;2.68;75.52
52957;BME280;38819;42.692;23.342;2023-01-27T00:59:40;94447.25;;;2.66;75.42
52957;BME280;38819;42.692;23.342;2023-01-27T01:02:06;94458.72;;;2.67;75.63
52957;BME280;38819;42.692;23.342;2023-01-27T01:04:31;94445.66;;;2.70;75.23
52957;BME280;38819;42.692;23.342;2023-01-27T01:06:57;94445.66;;;2.70;75.21
52957;BME280;38819;42.692;23.342;2023-01-27T01:09:22;94440.59;;;2.74;75.28
52957;BME280;38819;42.692;23.342;2023-01-27T01:11:48;94436.59;;;2.71;75.32
52957;BME280;38819;42.692;23.342;2023-01-27T01:14:13;94441.16;;;2.76;75.36
52957;BME280;38819;42.692;23.342;2023-01-27T01:16:38;94439.53;;;2.70;75.26
52957;BME280;38819;42.692;23.342;2023-01-27T01:19:04;94438.75;;;2.69;75.58
52957;BME280;38819;42.692;23.342;2023-01-27T01:21:29;94441.91;;;2.66;75.49
52957;BME280;38819;42.692;23.342;2023-01-27T01:23:55;94447.00;;;2.68;75.85
52957;BME280;38819;42.692;23.342;2023-01-27T01:26:20;94449.91;;;2.66;76.03
52957;BME280;38819;42.692;23.342;2023-01-27T01:28:46;94448.06;;;2.72;76.11
52957;BME280;38819;42.692;23.342;2023-01-27T01:31:17;94442.75;;;2.77;75.90
52957;BME280;38819;42.692;23.342;2023-01-27T01:33:43;94434.72;;;2.72;75.96
52957;BME280;38819;42.692;23.342;2023-01-27T01:36:14;94442.47;;;2.73;75.99
52957;BME280;38819;42.692;23.342;2023-01-27T01:38:39;94451.25;;;2.74;76.18
52957;BME280;38819;42.692;23.342;2023-01-27T01:41:06;94462.50;;;2.76;76.28
52957;BME280;38819;42.692;23.342;2023-01-27T01:43:32;94465.94;;;2.71;76.28
52957;BME280;38819;42.692;23.342;2023-01-27T01:45:59;94475.56;;;2.77;76.47
52957;BME280;38819;42.692;23.342;2023-01-27T01:48:36;94467.00;;;2.81;76.42
52957;BME280;38819;42.692;23.342;2023-01-27T01:51:09;94457.44;;;2.85;76.43
52957;BME280;38819;42.692;23.342;2023-01-27T01:56:42;94444.91;;;2.85;76.34
52957;BME280;38819;42.692;23.342;2023-01-27T01:59:19;94442.75;;;2.82;76.06
52957;BME280;38819;42.692;23.342;2023-01-27T02:01:49;94437.66;;;2.75;75.69
52957;BME280;38819;42.692;23.342;2023-01-27T02:04:18;94441.69;;;2.73;75.67
52957;BME280;38819;42.692;23.342;2023-01-27T02:06:53;94421.91;;;2.64;75.89
52957;BME280;38819;42.692;23.342;2023-01-27T02:09:23;94415.22;;;2.51;76.36
52957;BME280;38819;42.692;23.342;2023-01-27T02:11:49;94406.41;;;2.50;76.58
52957;BME280;38819;42.692;23.342;2023-01-27T02:14:16;94406.63;;;2.38;76.67
52957;BME280;38819;42.692;23.342;2023-01-27T02:16:42;94395.38;;;2.26;77.64
52957;BME280;38819;42.692;23.342;2023-01-27T02:19:14;94390.28;;;2.14;77.94
52957;BME280;38819;42.692;23.342;2023-01-27T02:21:44;94395.06;;;2.12;78.38
52957;BME280;38819;42.692;23.342;2023-01-27T02:24:11;94389.22;;;2.20;78.14
52957;BME280;38819;42.692;23.342;2023-01-27T02:26:39;94383.63;;;2.17;77.84
52957;BME280;38819;42.692;23.342;2023-01-27T02:29:09;94387.09;;;2.17;77.96
52957;BME280;38819;42.692;23.342;2023-01-27T02:31:35;94379.09;;;2.12;78.05
52957;BME280;38819;42.692;23.342;2023-01-27T02:34:04;94380.41;;;2.15;77.99
52957;BME280;38819;42.692;23.342;2023-01-27T02:36:33;94386.28;;;2.17;77.62
52957;BME280;38819;42.692;23.342;2023-01-27T02:39:02;94385.22;;;2.18;77.76
52957;BME280;38819;42.692;23.342;2023-01-27T02:41:38;94382.31;;;2.19;77.27
52957;BME280;38819;42.692;23.342;2023-01-27T02:44:05;94386.53;;;2.15;77.61
52957;BME280;38819;42.692;23.342;2023-01-27T02:46:31;94385.97;;;2.08;77.85
52957;BME280;38819;42.692;23.342;2023-01-27T02:48:57;94383.25;;;1.93;78.44
52957;BME280;38819;42.692;23.342;2023-01-27T02:51:22;94397.34;;;1.88;78.83
52957;BME280;38819;42.692;23.342;2023-01-27T02:53:48;94402.97;;;1.97;78.74
52957;BME280;38819;42.692;23.342;2023-01-27T02:56:13;94406.22;;;2.04;78.61
52957;BME280;38819;42.692;23.342;2023-01-27T02:58:38;94392.66;;;2.11;78.76
52957;BME280;38819;42.692;23.342;2023-01-27T03:01:04;94395.34;;;2.11;78.26
52957;BME280;38819;42.692;23.342;2023-01-27T03:03:29;94396.44;;;2.25;77.97
52957;BME280;38819;42.692;23.342;2023-01-27T03:05:55;94392.19;;;2.19;77.86
52957;BME280;38819;42.692;23.342;2023-01-27T03:08:20;94386.59;;;2.26;77.67
52957;BME280;38819;42.692;23.342;2023-01-27T03:10:50;94379.69;;;2.30;77.14
52957;BME280;38819;42.692;23.342;2023-01-27T03:13:20;94374.88;;;2.32;77.57
52957;BME280;38819;42.692;23.342;2023-01-27T03:15:46;94377.56;;;2.32;77.39
52957;BME280;38819;42.692;23.342;2023-01-27T03:18:30;94369.28;;;2.28;77.36
52957;BME280;38819;42.692;23.342;2023-01-27T03:21:00;94364.47;;;2.25;78.10
52957;BME280;38819;42.692;23.342;2023-01-27T03:23:26;94367.66;;;2.27;78.03
52957;BME280;38819;42.692;23.342;2023-01-27T03:25:52;94362.88;;;2.19;77.94
52957;BME280;38819;42.692;23.342;2023-01-27T03:28:17;94361.22;;;2.13;78.74
52957;BME280;38819;42.692;23.342;2023-01-27T03:30:42;94356.16;;;2.11;78.99
52957;BME280;38819;42.692;23.342;2023-01-27T03:33:08;94350.81;;;2.06;79.22
52957;BME280;38819;42.692;23.342;2023-01-27T03:35:35;94346.75;;;1.93;79.60
52957;BME280;38819;42.692;23.342;2023-01-27T03:38:09;94334.22;;;1.89;79.96
52957;BME280;38819;42.692;23.342;2023-01-27T03:40:55;94331.31;;;1.95;79.31
52957;BME280;38819;42.692;23.342;2023-01-27T03:43:38;94329.13;;;1.82;79.43
52957;BME280;38819;42.692;23.342;2023-01-27T03:46:22;94320.88;;;1.83;79.94
52957;BME280;38819;42.692;23.342;2023-01-27T03:48:50;94323.28;;;1.85;79.83
52957;BME280;38819;42.692;23.342;2023-01-27T03:51:17;94315.56;;;1.83;79.59
52957;BME280;38819;42.692;23.342;2023-01-27T03:53:43;94328.06;;;1.83;79.84
52957;BME280;38819;42.692;23.342;2023-01-27T03:56:09;94326.63;;;1.60;80.21
52957;BME280;38819;42.692;23.342;2023-01-27T03:58:35;94322.38;;;1.59;80.91
52957;BME280;38819;42.692;23.342;2023-01-27T04:01:04;94320.03;;;1.67;80.81
52957;BME280;38819;42.692;23.342;2023-01-27T04:03:34;94328.81;;;1.73;80.76
52957;BME280;38819;42.692;23.342;2023-01-27T04:06:24;94345.34;;;1.75;79.86
52957;BME280;38819;42.692;23.342;2023-01-27T04:09:10;94355.75;;;1.82;79.69
52957;BME280;38819;42.692;23.342;2023-01-27T04:11:36;94375.25;;;1.93;78.97
52957;BME280;38819;42.692;23.342;2023-01-27T04:14:21;94379.56;;;1.99;78.07
52957;BME280;38819;42.692;23.342;2023-01-27T04:16:47;94397.44;;;2.09;77.81
52957;BME280;38819;42.692;23.342;2023-01-27T04:19:13;94400.94;;;2.14;77.89
52957;BME280;38819;42.692;23.342;2023-01-27T04:21:39;94404.66;;;2.18;78.15
52957;BME280;38819;42.692;23.342;2023-01-27T04:24:05;94390.31;;;2.19;78.23
52957;BME280;38819;42.692;23.342;2023-01-27T04:26:33;94387.41;;;2.31;77.74
52957;BME280;38819;42.692;23.342;2023-01-27T04:29:03;94389.06;;;2.43;77.33
52957;BME280;38819;42.692;23.342;2023-01-27T04:31:29;94406.41;;;2.55;76.67
52957;BME280;38819;42.692;23.342;2023-01-27T04:33:56;94412.84;;;2.59;76.22
52957;BME280;38819;42.692;23.342;2023-01-27T04:36:22;94416.84;;;2.67;75.74
52957;BME280;38819;42.692;23.342;2023-01-27T04:38:47;94417.66;;;2.68;75.65
52957;BME280;38819;42.692;23.342;2023-01-27T04:41:12;94413.13;;;2.68;75.51
52957;BME280;38819;42.692;23.342;2023-01-27T04:43:38;94415.00;;;2.68;75.22
52957;BME280;38819;42.692;23.342;2023-01-27T04:46:03;94415.53;;;2.75;75.05
52957;BME280;38819;42.692;23.342;2023-01-27T04:48:29;94412.09;;;2.74;75.15
52957;BME280;38819;42.692;23.342;2023-01-27T04:50:54;94407.28;;;2.76;75.68
52957;BME280;38819;42.692;23.342;2023-01-27T04:53:20;94410.22;;;2.75;74.94
52957;BME280;38819;42.692;23.342;2023-01-27T04:55:48;94420.06;;;2.64;75.25
52957;BME280;38819;42.692;23.342;2023-01-27T04:58:15;94424.56;;;2.64;75.77
52957;BME280;38819;42.692;23.342;2023-01-27T05:00:42;94428.59;;;2.66;75.71
52957;BME280;38819;42.692;23.342;2023-01-27T05:03:08;94417.31;;;2.49;76.24
52957;BME280;38819;42.692;23.342;2023-01-27T05:05:35;94426.63;;;2.36;76.84
52957;BME280;38819;42.692;23.342;2023-01-27T05:08:02;94422.28;;;2.19;77.56
52957;BME280;38819;42.692;23.342;2023-01-27T05:10:28;94425.97;;;2.18;77.39
52957;BME280;38819;42.692;23.342;2023-01-27T05:12:53;94421.78;;;2.28;77.72
52957;BME280;38819;42.692;23.342;2023-01-27T05:15:18;94410.31;;;2.27;77.49
52957;BME280;38819;42.692;23.342;2023-01-27T05:17:44;94402.78;;;2.14;78.01
52957;BME280;38819;42.692;23.342;2023-01-27T05:20:09;94411.88;;;2.18;78.30
52957;BME280;38819;42.692;23.342;2023-01-27T05:22:35;94413.75;;;2.17;78.47
52957;BME280;38819;42.692;23.342;2023-01-27T05:25:00;94414.50;;;2.13;78.63
52957;BME280;38819;42.692;23.342;2023-01-27T05:27:26;94418.00;;;2.23;78.69
52957;BME280;38819;42.692;23.342;2023-01-27T05:29:51;94396.13;;;2.11;78.62
52957;BME280;38819;42.692;23.342;2023-01-27T05:32:17;94390.78;;;2.11;78.59
52957;BME280;38819;42.692;23.342;2023-01-27T05:34:42;94393.13;;;1.97;79.43
52957;BME280;38819;42.692;23.342;2023-01-27T05:37:07;94395.78;;;1.92;79.84
52957;BME280;38819;42.692;23.342;2023-01-27T05:39:33;94396.88;;;2.07;79.88
52957;BME280;38819;42.692;23.342;2023-01-27T05:41:58;94386.69;;;1.93;79.92
52957;BME280;38819;42.692;23.342;2023-01-27T05:44:24;94381.16;;;2.00;79.50
52957;BME280;38819;42.692;23.342;2023-01-27T05:46:49;94378.22;;;2.01;78.53
52957;BME280;38819;42.692;23.342;2023-01-27T05:49:14;94385.69;;;1.99;78.89
52957;BME280;38819;42.692;23.342;2023-01-27T05:51:40;94387.03;;;2.07;78.18
52957;BME280;38819;42.692;23.342;2023-01-27T05:54:06;94391.84;;;2.10;78.07
52957;BME280;38819;42.692;23.342;2023-01-27T05:56:32;94386.31;;;2.22;78.20
52957;BME280;38819;42.692;23.342;2023-01-27T05:58:58;94393.53;;;2.27;77.49
52957;BME280;38819;42.692;23.342;2023-01-27T06:01:26;94400.19;;;2.24;76.96
52957;BME280;38819;42.692;23.342;2023-01-27T06:03:52;94413.19;;;2.20;76.93
52957;BME280;38819;42.692;23.342;2023-01-27T06:06:19;94413.28;;;2.31;77.00
52957;BME280;38819;42.692;23.342;2023-01-27T06:08:46;94405.50;;;2.24;77.23
52957;BME280;38819;42.692;23.342;2023-01-27T06:11:12;94392.50;;;2.33;77.13
52957;BME280;38819;42.692;23.342;2023-01-27T06:13:39;94398.88;;;2.32;76.88
52957;BME280;38819;42.692;23.342;2023-01-27T06:16:08;94401.31;;;2.44;76.57
52957;BME280;38819;42.692;23.342;2023-01-27T06:18:34;94399.22;;;2.46;76.05
52957;BME280;38819;42.692;23.342;2023-01-27T06:21:01;94400.50;;;2.43;76.30
52957;BME280;38819;42.692;23.342;2023-01-27T06:23:27;94407.72;;;2.43;76.00
52957;BME280;38819;42.692;23.342;2023-01-27T06:25:54;94412.72;;;2.29;76.34
52957;BME280;38819;42.692;23.342;2023-01-27T06:28:19;94416.72;;;2.31;76.56
52957;BME280;38819;42.692;23.342;2023-01-27T06:30:45;94402.03;;;2.29;76.26
52957;BME280;38819;42.692;23.342;2023-01-27T06:33:11;94410.13;;;2.39;76.21
52957;BME280;38819;42.692;23.342;2023-01-27T06:35:38;94400.00;;;2.46;76.18
52957;BME280;38819;42.692;23.342;2023-01-27T06:38:06;94411.44;;;2.41;75.60
52957;BME280;38819;42.692;23.342;2023-01-27T06:40:33;94405.59;;;2.45;75.54
52957;BME280;38819;42.692;23.342;2023-01-27T06:42:59;94424.25;;;2.45;75.21
52957;BME280;38819;42.692;23.342;2023-01-27T06:45:25;94409.03;;;2.45;75.35
52957;BME280;38819;42.692;23.342;2023-01-27T06:47:58;94416.53;;;2.48;75.11
52957;BME280;38819;42.692;23.342;2023-01-27T06:50:26;94416.81;;;2.57;73.94
52957;BME280;38819;42.692;23.342;2023-01-27T06:52:52;94422.38;;;2.45;74.22
52957;BME280;38819;42.692;23.342;2023-01-27T06:55:17;94426.34;;;2.32;74.88
52957;BME280;38819;42.692;23.342;2023-01-27T06:57:44;94427.41;;;2.36;75.12
52957;BME280;38819;42.692;23.342;2023-01-27T07:00:13;94431.38;;;2.34;75.21
52957;BME280;38819;42.692;23.342;2023-01-27T07:02:38;94426.13;;;2.44;75.26
52957;BME280;38819;42.692;23.342;2023-01-27T07:05:04;94430.38;;;2.50;74.52
52957;BME280;38819;42.692;23.342;2023-01-27T07:07:29;94429.56;;;2.45;74.32
52957;BME280;38819;42.692;23.342;2023-01-27T07:09:55;94432.50;;;2.48;74.56
52957;BME280;38819;42.692;23.342;2023-01-27T07:12:20;94430.94;;;2.52;74.40
52957;BME280;38819;42.692;23.342;2023-01-27T07:14:45;94436.78;;;2.49;74.37
52957;BME280;38819;42.692;23.342;2023-01-27T07:17:11;94441.88;;;2.56;74.27
52957;BME280;38819;42.692;23.342;2023-01-27T07:19:36;94431.75;;;2.53;73.33
52957;BME280;38819;42.692;23.342;2023-01-27T07:22:02;94430.09;;;2.47;73.80
52957;BME280;38819;42.692;23.342;2023-01-27T07:24:27;94429.81;;;2.38;73.88
52957;BME280;38819;42.692;23.342;2023-01-27T07:26:53;94425.56;;;2.42;73.87
52957;BME280;38819;42.692;23.342;2023-01-27T07:29:18;94429.84;;;2.48;73.89
52957;BME280;38819;42.692;23.342;2023-01-27T07:31:44;94429.09;;;2.58;74.16
52957;BME280;38819;42.692;23.342;2023-01-27T07:34:09;94426.41;;;2.53;73.76
52957;BME280;38819;42.692;23.342;2023-01-27T07:36:35;94429.91;;;2.64;73.67
52957;BME280;38819;42.692;23.342;2023-01-27T07:39:00;94429.56;;;2.45;73.49
52957;BME280;38819;42.692;23.342;2023-01-27T07:41:25;94433.31;;;2.54;73.59
52957;BME280;38819;42.692;23.342;2023-01-27T07:43:54;94435.47;;;2.57;73.21
52957;BME280;38819;42.692;23.342;2023-01-27T07:46:19;94437.91;;;2.64;72.31
52957;BME280;38819;42.692;23.342;2023-01-27T07:48:45;94434.97;;;2.60;72.74
52957;BME280;38819;42.692;23.342;2023-01-27T07:51:14;94432.31;;;2.65;73.34
52957;BME280;38819;42.692;23.342;2023-01-27T07:53:40;94428.88;;;2.70;72.80
52957;BME280;38819;42.692;23.342;2023-01-27T07:56:06;94438.16;;;2.67;72.67
52957;BME280;38819;42.692;23.342;2023-01-27T07:58:40;94442.16;;;2.59;72.36
52957;BME280;38819;42.692;23.342;2023-01-27T08:01:10;94447.25;;;2.61;72.19
52957;BME280;38819;42.692;23.342;2023-01-27T08:03:36;94438.41;;;2.55;72.92
52957;BME280;38819;42.692;23.342;2023-01-27T08:06:07;94430.97;;;2.57;72.81
52957;BME280;38819;42.692;23.342;2023-01-27T08:08:33;94434.69;;;2.56;72.20
52957;BME280;38819;42.692;23.342;2023-01-27T08:11:00;94437.31;;;2.46;72.23
52957;BME280;38819;42.692;23.342;2023-01-27T08:13:25;94435.16;;;2.43;73.23
52957;BME280;38819;42.692;23.342;2023-01-27T08:15:58;94435.75;;;2.60;72.22
52957;BME280;38819;42.692;23.342;2023-01-27T08:18:24;94428.78;;;2.44;72.33
52957;BME280;38819;42.692;23.342;2023-01-27T08:20:53;94431.44;;;2.44;72.29
52957;BME280;38819;42.692;23.342;2023-01-27T08:23:20;94423.97;;;2.41;72.01
52957;BME280;38819;42.692;23.342;2023-01-27T08:25:54;94430.09;;;2.47;72.17
52957;BME280;38819;42.692;23.342;2023-01-27T08:28:21;94439.44;;;2.44;71.13
52957;BME280;38819;42.692;23.342;2023-01-27T08:30:47;94438.66;;;2.54;70.83
52957;BME280;38819;42.692;23.342;2023-01-27T08:33:16;94441.66;;;2.63;70.59
52957;BME280;38819;42.692;23.342;2023-01-27T08:35:42;94440.00;;;2.56;71.00
52957;BME280;38819;42.692;23.342;2023-01-27T08:38:10;94446.41;;;2.55;70.93
52957;BME280;38819;42.692;23.342;2023-01-27T08:40:38;94448.03;;;2.62;70.87
52957;BME280;38819;42.692;23.342;2023-01-27T08:43:04;94442.66;;;2.46;70.95
52957;BME280;38819;42.692;23.342;2023-01-27T08:45:29;94454.66;;;2.54;71.25
52957;BME280;38819;42.692;23.342;2023-01-27T08:47:55;94463.16;;;2.46;71.79
52957;BME280;38819;42.692;23.342;2023-01-27T08:50:21;94448.25;;;2.50;70.65
52957;BME280;38819;42.692;23.342;2023-01-27T08:52:46;94442.84;;;2.34;70.92
52957;BME280;38819;42.692;23.342;2023-01-27T08:55:11;94453.50;;;2.29;71.58
52957;BME280;38819;42.692;23.342;2023-01-27T08:57:37;94448.16;;;2.24;71.66
52957;BME280;38819;42.692;23.342;2023-01-27T09:00:04;94446.81;;;2.27;72.00
52957;BME280;38819;42.692;23.342;2023-01-27T09:02:29;94432.16;;;2.24;72.00
52957;BME280;38819;42.692;23.342;2023-01-27T09:04:55;94442.31;;;2.32;71.71
52957;BME280;38819;42.692;23.342;2023-01-27T09:07:20;94449.53;;;2.42;71.71
52957;BME280;38819;42.692;23.342;2023-01-27T09:09:46;94440.78;;;2.47;71.70
52957;BME280;38819;42.692;23.342;2023-01-27T09:12:12;94438.47;;;2.66;71.85
52957;BME280;38819;42.692;23.342;2023-01-27T09:14:37;94431.50;;;2.65;71.34
52957;BME280;38819;42.692;23.342;2023-01-27T09:17:04;94439.53;;;2.70;71.25
52957;BME280;38819;42.692;23.342;2023-01-27T09:19:29;94428.88;;;2.75;70.96
52957;BME280;38819;42.692;23.342;2023-01-27T09:21:55;94441.19;;;2.86;71.32
52957;BME280;38819;42.692;23.342;2023-01-27T09:24:20;94429.41;;;2.82;71.07
52957;BME280;38819;42.692;23.342;2023-01-27T09:26:46;94429.69;;;2.81;70.71
52957;BME280;38819;42.692;23.342;2023-01-27T09:29:11;94425.72;;;2.99;70.35
52957;BME280;38819;42.692;23.342;2023-01-27T09:31:37;94424.41;;;3.01;70.96
52957;BME280;38819;42.692;23.342;2023-01-27T09:34:02;94430.78;;;2.95;70.57
52957;BME280;38819;42.692;23.342;2023-01-27T09:36:28;94419.88;;;3.02;70.02
52957;BME280;38819;42.692;23.342;2023-01-27T09:39:01;94406.25;;;2.98;70.63
52957;BME280;38819;42.692;23.342;2023-01-27T10:27:34;94379.34;;;3.05;70.59
52957;BME280;38819;42.692;23.342;2023-01-27T10:30:19;94381.47;;;3.03;70.98
52957;BME280;38819;42.692;23.342;2023-01-27T10:32:56;94387.31;;;2.94;71.06
52957;BME280;38819;42.692;23.342;2023-01-27T10:35:39;94375.84;;;2.94;70.84
52957;BME280;38819;42.692;23.342;2023-01-27T10:41:22;94382.78;;;2.85;71.20
52957;BME280;38819;42.692;23.342;2023-01-27T10:46:49;94380.91;;;2.95;70.85
52957;BME280;38819;42.692;23.342;2023-01-27T10:49:27;94374.25;;;2.93;70.77
52957;BME280;38819;42.692;23.342;2023-01-27T10:51:58;94373.97;;;2.89;70.77
52957;BME280;38819;42.692;23.342;2023-01-27T10:55:06;94366.78;;;2.85;71.21
52957;BME280;38819;42.692;23.342;2023-01-27T10:57:37;94365.41;;;2.82;71.81
52957;BME280;38819;42.692;23.342;2023-01-27T11:00:15;94364.38;;;2.93;71.47
52957;BME280;38819;42.692;23.342;2023-01-27T11:02:46;94369.72;;;2.99;71.42
52957;BME280;38819;42.692;23.342;2023-01-27T11:05:26;94373.47;;;2.97;71.29
52957;BME280;38819;42.692;23.342;2023-01-27T11:08:00;94363.84;;;3.02;71.41
52957;BME280;38819;42.692;23.342;2023-01-27T11:10:41;94371.59;;;3.03;70.32
52957;BME280;38819;42.692;23.342;2023-01-27T11:13:30;94364.66;;;3.02;70.15
52957;BME280;38819;42.692;23.342;2023-01-27T11:15:57;94370.28;;;3.06;70.05
52957;BME280;38819;42.692;23.342;2023-01-27T11:18:25;94362.78;;;3.13;70.30
52957;BME280;38819;42.692;23.342;2023-01-27T11:20:55;94351.59;;;3.11;69.77
52957;BME280;38819;42.692;23.342;2023-01-27T11:23:39;94341.72;;;3.11;70.30
52957;BME280;38819;42.692;23.342;2023-01-27T11:28:59;94341.72;;;3.27;69.08
52957;BME280;38819;42.692;23.342;2023-01-27T11:31:41;94352.38;;;3.27;69.48
52957;BME280;38819;42.692;23.342;2023-01-27T11:34:17;94335.06;;;3.19;69.14
52957;BME280;38819;42.692;23.342;2023-01-27T11:36:46;94334.78;;;3.15;69.69
52957;BME280;38819;42.692;23.342;2023-01-27T11:39:13;94336.38;;;3.22;69.82
52957;BME280;38819;42.692;23.342;2023-01-27T11:41:40;94346.00;;;3.23;69.43
52957;BME280;38819;42.692;23.342;2023-01-27T11:44:17;94344.13;;;3.23;69.81
52957;BME280;38819;42.692;23.342;2023-01-27T11:46:44;94341.97;;;3.20;69.31
52957;BME280;38819;42.692;23.342;2023-01-27T11:49:11;94339.84;;;3.27;69.14
52957;BME280;38819;42.692;23.342;2023-01-27T11:51:38;94337.47;;;3.26;69.17
52957;BME280;38819;42.692;23.342;2023-01-27T11:56:36;94335.06;;;3.24;69.81
52957;BME280;38819;42.692;23.342;2023-01-27T11:59:14;94335.84;;;3.30;69.35
52957;BME280;38819;42.692;23.342;2023-01-27T12:01:55;94338.78;;;3.33;69.18
52957;BME280;38819;42.692;23.342;2023-01-27T12:04:24;94327.31;;;3.28;68.88
52957;BME280;38819;42.692;23.342;2023-01-27T12:07:03;94335.31;;;3.28;68.90
52957;BME280;38819;42.692;23.342;2023-01-27T12:09:39;94329.16;;;3.27;68.96
52957;BME280;38819;42.692;23.342;2023-01-27T12:14:36;94338.25;;;3.21;69.59
52957;BME280;38819;42.692;23.342;2023-01-27T12:17:02;94328.09;;;3.28;69.44
52957;BME280;38819;42.692;23.342;2023-01-27T12:19:35;94340.09;;;3.15;69.21
52957;BME280;38819;42.692;23.342;2023-01-27T12:22:08;94335.59;;;3.16;69.41
52957;BME280;38819;42.692;23.342;2023-01-27T12:24:40;94346.53;;;3.20;68.71
52957;BME280;38819;42.692;23.342;2023-01-27T12:27:19;94348.09;;;3.21;69.18
52957;BME280;38819;42.692;23.342;2023-01-27T12:29:53;94343.31;;;3.07;69.48
52957;BME280;38819;42.692;23.342;2023-01-27T12:32:23;94337.19;;;3.02;69.88
52957;BME280;38819;42.692;23.342;2023-01-27T12:34:52;94342.50;;;3.02;69.66
52957;BME280;38819;42.692;23.342;2023-01-27T12:37:25;94348.09;;;3.05;69.60
52957;BME280;38819;42.692;23.342;2023-01-27T12:39:57;94348.38;;;2.99;70.00
52957;BME280;38819;42.692;23.342;2023-01-27T12:45:28;94342.50;;;3.22;69.71
52957;BME280;38819;42.692;23.342;2023-01-27T12:47:55;94344.66;;;3.20;69.98
52957;BME280;38819;42.692;23.342;2023-01-27T12:50:33;94349.19;;;3.14;69.97
52957;BME280;38819;42.692;23.342;2023-01-27T12:53:07;94346.25;;;3.16;70.11
52957;BME280;38819;42.692;23.342;2023-01-27T12:55:38;94337.97;;;3.28;69.80
52957;BME280;38819;42.692;23.342;2023-01-27T12:58:05;94340.38;;;3.14;70.01
52957;BME280;38819;42.692;23.342;2023-01-27T13:00:31;94334.50;;;3.12;70.91
52957;BME280;38819;42.692;23.342;2023-01-27T13:03:09;94336.66;;;3.05;70.66
52957;BME280;38819;42.692;23.342;2023-01-27T13:05:37;94336.66;;;2.94;71.55
52957;BME280;38819;42.692;23.342;2023-01-27T13:08:04;94331.56;;;3.03;72.28
52957;BME280;38819;42.692;23.342;2023-01-27T13:10:30;94319.59;;;3.06;71.99
52957;BME280;38819;42.692;23.342;2023-01-27T13:12:58;94336.91;;;3.08;71.55
52957;BME280;38819;42.692;23.342;2023-01-27T13:15:28;94337.44;;;3.10;71.11
52957;BME280;38819;42.692;23.342;2023-01-27T13:17:56;94340.38;;;2.99;71.80
52957;BME280;38819;42.692;23.342;2023-01-27T13:20:29;94338.22;;;2.85;72.49
52957;BME280;38819;42.692;23.342;2023-01-27T13:23:06;94340.91;;;3.01;72.83
52957;BME280;38819;42.692;23.342;2023-01-27T13:26:08;94329.16;;;3.17;72.18
52957;BME280;38819;42.692;23.342;2023-01-27T13:28:51;94335.31;;;3.12;72.40
52957;BME280;38819;42.692;23.342;2023-01-27T13:33:58;94345.16;;;3.22;71.60
52957;BME280;38819;42.692;23.342;2023-01-27T13:36:43;94340.91;;;3.26;71.27
52957;BME280;38819;42.692;23.342;2023-01-27T13:42:31;94337.72;;;3.29;71.41
52957;BME280;38819;42.692;23.342;2023-01-27T13:45:14;94339.03;;;3.37;70.94
52957;BME280;38819;42.692;23.342;2023-01-27T13:50:30;94337.16;;;3.43;70.91
52957;BME280;38819;42.692;23.342;2023-01-27T13:52:58;94340.91;;;3.42;70.72
52957;BME280;38819;42.692;23.342;2023-01-27T14:07:21;94355.56;;;3.34;70.23
52957;BME280;38819;42.692;23.342;2023-01-27T14:13:06;94362.78;;;3.23;70.54
52957;BME280;38819;42.692;23.342;2023-01-27T14:18:22;94362.78;;;3.39;69.91
52957;BME280;38819;42.692;23.342;2023-01-27T14:21:18;94359.59;;;3.31;70.03
52957;BME280;38819;42.692;23.342;2023-01-27T14:31:51;94377.47;;;3.21;69.84
52957;BME280;38819;42.692;23.342;2023-01-27T14:46:35;94387.06;;;3.27;70.08
52957;BME280;38819;42.692;23.342;2023-01-27T14:49:25;94384.16;;;3.23;70.30
52957;BME280;38819;42.692;23.342;2023-01-27T14:52:27;94384.13;;;3.33;69.73
52957;BME280;38819;42.692;23.342;2023-01-27T14:57:30;94393.50;;;3.31;69.93
52957;BME280;38819;42.692;23.342;2023-01-27T15:00:20;94394.28;;;3.37;69.42
52957;BME280;38819;42.692;23.342;2023-01-27T15:07:57;94397.75;;;3.42;69.37
52957;BME280;38819;42.692;23.342;2023-01-27T15:10:27;94409.25;;;3.43;69.26